createdAt,value
2022-11-17T00:07:52.044Z,66.03
2022-11-17T00:14:13.305Z,63.13
2022-11-17T00:20:34.471Z,60.20
2022-11-17T00:27:00.058Z,64.00
2022-11-17T00:33:22.786Z,47.83
2022-11-17T00:39:25.147Z,65.23
2022-11-17T00:45:27.343Z,60.00
2022-11-17T00:51:29.783Z,55.22
2022-11-17T00:57:31.899Z,61.42
2022-11-17T01:03:38.166Z,65.68
2022-11-17T01:09:40.567Z,63.72
2022-11-17T01:15:42.597Z,57.72
2022-11-17T01:21:45.025Z,71.50
2022-11-17T01:27:48.182Z,62.17
2022-11-17T01:33:50.299Z,64.82
2022-11-17T01:39:52.372Z,63.13
2022-11-17T01:45:54.557Z,62.17
2022-11-17T01:52:02.522Z,67.93
2022-11-17T01:58:19.243Z,69.82
2022-11-17T02:04:24.474Z,59.05
2022-11-17T02:10:30.445Z,59.83
2022-11-17T02:16:32.779Z,61.75
2022-11-17T02:22:47.501Z,57.60
2022-11-17T02:29:13.055Z,63.17
2022-11-17T02:35:24.246Z,68.53
2022-11-17T02:41:38.488Z,71.22
2022-11-17T02:47:42.973Z,65.88
2022-11-17T02:53:45.376Z,75.28
2022-11-17T02:59:48.903Z,72.97
2022-11-17T03:06:38.885Z,72.07
2022-11-17T03:12:48.530Z,81.05
2022-11-17T03:19:12.196Z,67.90
2022-11-17T03:25:18.238Z,68.40
2022-11-17T03:31:23.045Z,64.32
2022-11-17T03:37:29.038Z,74.53
2022-11-17T03:43:32.998Z,69.85
2022-11-17T03:49:58.676Z,66.55
2022-11-17T03:56:07.542Z,69.40
2022-11-17T04:02:31.807Z,60.92
2022-11-17T04:08:34.157Z,69.30
2022-11-17T04:14:54.921Z,79.65
2022-11-17T04:20:57.659Z,64.88
2022-11-17T04:27:18.271Z,60.35
2022-11-17T04:33:20.325Z,59.80
2022-11-17T04:39:22.325Z,70.17
2022-11-17T04:45:24.427Z,74.93
2022-11-17T04:51:27.079Z,74.53
2022-11-17T04:57:29.282Z,76.85
2022-11-17T05:03:31.483Z,71.82
2022-11-17T05:09:33.627Z,84.43
2022-11-17T05:15:54.507Z,79.07
2022-11-17T05:21:57.439Z,77.93
2022-11-17T05:27:59.608Z,74.55
2022-11-17T05:34:02.869Z,70.93
2022-11-17T05:40:05.388Z,69.07
2022-11-17T05:46:07.568Z,71.30
2022-11-17T05:52:09.958Z,78.65
2022-11-17T05:58:33.792Z,74.88
2022-11-17T06:04:36.034Z,76.45
2022-11-17T06:10:38.360Z,75.03
2022-11-17T06:16:44.921Z,82.75
2022-11-17T06:22:48.829Z,73.15
2022-11-17T06:28:51.825Z,88.95
2022-11-17T06:34:56.278Z,78.35
2022-11-17T06:40:58.791Z,92.78
2022-11-17T06:47:00.969Z,73.43
2022-11-17T06:53:06.526Z,75.30
2022-11-17T06:59:08.662Z,69.22
2022-11-17T07:05:10.759Z,71.50
2022-11-17T07:11:15.469Z,72.47
2022-11-17T07:17:17.609Z,81.78
2022-11-17T07:23:19.791Z,94.10
2022-11-17T07:29:21.903Z,97.70
2022-11-17T07:35:23.915Z,75.77
2022-11-17T07:41:26.117Z,86.63
2022-11-17T07:47:28.118Z,78.72
2022-11-17T07:53:31.968Z,92.33
2022-11-17T07:59:34.036Z,75.65
2022-11-17T08:05:42.915Z,68.60
2022-11-17T08:11:45.862Z,76.70
2022-11-17T08:17:52.662Z,73.20
2022-11-17T08:23:55.520Z,64.85
2022-11-17T08:36:01.287Z,58.35
2022-11-17T08:42:03.538Z,61.75
2022-11-17T08:48:07.722Z,52.13
2022-11-17T08:54:12.991Z,67.65
2022-11-17T09:00:16.813Z,61.72
2022-11-17T09:06:20.617Z,75.43
2022-11-17T09:12:26.227Z,61.90
2022-11-17T09:18:28.527Z,45.78
2022-11-17T09:24:31.287Z,41.60
2022-11-17T09:30:33.744Z,40.90
2022-11-17T09:36:37.210Z,43.58
2022-11-17T09:42:40.626Z,45.17
2022-11-17T09:48:52.559Z,47.00
2022-11-17T09:55:00.266Z,52.60
2022-11-17T10:01:02.401Z,41.17
2022-11-17T10:07:04.669Z,44.80
2022-11-17T10:13:24.338Z,39.45
2022-11-17T10:19:37.094Z,37.13
2022-11-17T10:25:42.511Z,31.92
2022-11-17T10:31:46.669Z,31.75
2022-11-17T10:38:17.694Z,35.13
2022-11-17T10:44:25.046Z,35.42
2022-11-17T10:50:28.383Z,25.23
2022-11-17T10:56:32.342Z,30.15
2022-11-17T11:02:36.833Z,29.85
2022-11-17T11:08:51.839Z,20.23
2022-11-17T11:14:57.700Z,30.90
2022-11-17T11:21:08.925Z,27.15
2022-11-17T11:27:34.278Z,26.52
2022-11-17T11:33:50.333Z,27.70
2022-11-17T11:39:59.699Z,27.73
2022-11-17T11:46:29.341Z,35.05
2022-11-17T11:52:36.830Z,35.75
2022-11-17T11:58:45.820Z,36.38
2022-11-17T12:04:58.956Z,42.83
2022-11-17T12:17:26.608Z,43.47
2022-11-17T12:23:47.953Z,59.60
2022-11-17T12:29:50.004Z,45.30
2022-11-17T12:36:30.577Z,44.50
2022-11-17T12:42:35.138Z,37.78
2022-11-17T12:48:39.567Z,42.88
2022-11-17T12:54:56.615Z,44.28
2022-11-17T13:01:23.947Z,42.67
2022-11-17T13:07:27.348Z,43.83
2022-11-17T13:13:29.807Z,40.53
2022-11-17T13:19:38.403Z,38.40
2022-11-17T13:25:40.952Z,33.88
2022-11-17T13:31:43.523Z,38.78
2022-11-17T13:37:46.463Z,35.60
2022-11-17T13:49:51.952Z,30.52
2022-11-17T14:02:21.083Z,43.70
2022-11-17T14:08:32.270Z,61.03
2022-11-17T14:14:44.124Z,38.95
2022-11-17T14:20:48.534Z,43.35
2022-11-17T14:26:51.326Z,30.65
2022-11-17T14:38:56.537Z,32.15
2022-11-17T14:44:58.924Z,30.80
2022-11-17T14:51:02.171Z,23.67
2022-11-17T14:57:04.655Z,27.58
2022-11-17T15:03:07.869Z,20.63
2022-11-17T15:09:16.313Z,22.35
2022-11-17T15:15:18.682Z,22.15
2022-11-17T15:21:21.454Z,25.38
2022-11-17T15:27:24.143Z,25.80
2022-11-17T15:33:27.527Z,28.98
2022-11-17T15:39:31.122Z,31.13
2022-11-17T15:45:36.361Z,26.33
2022-11-17T15:51:38.759Z,25.58
2022-11-17T15:57:41.323Z,26.53
2022-11-17T16:03:45.648Z,27.80
2022-11-17T16:09:50.273Z,28.70
2022-11-17T16:15:54.654Z,31.75
2022-11-17T16:21:57.555Z,30.33
2022-11-17T16:27:59.936Z,27.02
2022-11-17T16:34:06.074Z,21.40
2022-11-17T16:40:08.836Z,21.65
2022-11-17T16:46:21.578Z,19.25
2022-11-17T16:52:23.955Z,21.73
2022-11-17T16:58:26.066Z,18.13
2022-11-17T17:04:30.772Z,19.87
2022-11-17T17:10:33.937Z,21.10
2022-11-17T17:16:38.034Z,20.88
2022-11-17T17:22:40.509Z,22.42
2022-11-17T17:28:45.222Z,20.40
2022-11-17T17:34:48.348Z,26.35
2022-11-17T17:40:51.002Z,20.38
2022-11-17T17:46:53.237Z,15.48
2022-11-17T17:52:55.420Z,18.40
2022-11-17T17:58:58.326Z,17.50
2022-11-17T18:05:00.530Z,18.42
2022-11-17T18:11:06.384Z,15.93
2022-11-17T18:17:08.734Z,19.42
2022-11-17T18:23:11.217Z,16.15
2022-11-17T18:29:19.129Z,13.55
2022-11-17T18:35:21.806Z,20.27
2022-11-17T18:41:24.636Z,20.38
2022-11-17T18:47:26.981Z,19.48
2022-11-17T18:53:30.806Z,19.63
2022-11-17T18:59:33.366Z,18.35
2022-11-17T19:05:35.649Z,21.13
2022-11-17T19:11:38.035Z,18.10
2022-11-17T19:17:40.321Z,22.77
2022-11-17T19:23:49.623Z,23.35
2022-11-17T19:29:53.569Z,23.00
2022-11-17T19:35:55.958Z,25.63
2022-11-17T19:41:58.377Z,26.42
2022-11-17T19:48:01.386Z,25.15
2022-11-17T19:54:08.371Z,22.55
2022-11-17T20:00:11.096Z,28.85
2022-11-17T20:06:19.520Z,31.60
2022-11-17T20:12:21.939Z,23.27
2022-11-17T20:18:24.066Z,36.33
2022-11-17T20:24:26.191Z,32.60
2022-11-17T20:30:28.519Z,27.67
2022-11-17T20:36:32.641Z,22.35
2022-11-17T20:42:34.656Z,22.52
2022-11-17T20:48:36.910Z,37.03
2022-11-17T20:54:38.887Z,27.90
2022-11-17T21:00:41.341Z,21.33
2022-11-17T21:06:43.523Z,29.17
2022-11-17T21:12:45.789Z,32.30
2022-11-17T21:18:48.802Z,32.25
2022-11-17T21:24:50.930Z,25.42
2022-11-17T21:30:53.910Z,28.30
2022-11-17T21:36:56.325Z,27.17
2022-11-17T21:43:00.183Z,24.80
2022-11-17T21:49:02.578Z,23.00
2022-11-17T21:55:05.187Z,26.17
2022-11-17T22:01:15.530Z,18.67
2022-11-17T22:07:17.844Z,22.17
2022-11-17T22:13:20.033Z,26.92
2022-11-17T22:19:24.138Z,21.25
2022-11-17T22:31:50.020Z,28.83
2022-11-17T22:37:52.368Z,23.80
2022-11-17T22:43:56.524Z,24.77
2022-11-17T22:49:58.578Z,21.58
2022-11-17T22:56:09.545Z,27.80
2022-11-17T23:02:12.003Z,25.20
2022-11-17T23:08:14.156Z,22.52
2022-11-17T23:14:16.495Z,21.63
2022-11-17T23:20:18.706Z,25.80
2022-11-17T23:26:21.051Z,24.02
2022-11-17T23:32:23.235Z,19.67
2022-11-17T23:38:25.826Z,23.10
2022-11-17T23:44:28.376Z,22.90
2022-11-17T23:50:30.490Z,31.15
2022-11-17T23:56:34.109Z,28.58
